createdAt,value
2024-02-29T00:00:16.117Z,47.60
2024-02-29T00:00:48.844Z,48.97
2024-02-29T00:01:23.341Z,48.77
2024-02-29T00:01:58.746Z,48.63
2024-02-29T00:02:31.576Z,49.73
2024-02-29T00:03:04.454Z,48.10
2024-02-29T00:03:38.544Z,48.80
2024-02-29T00:04:11.602Z,47.90
2024-02-29T00:04:44.325Z,48.97
2024-02-29T00:05:19.200Z,47.80
2024-02-29T00:05:51.887Z,47.93
2024-02-29T00:06:25.650Z,46.37
2024-02-29T00:06:58.729Z,48.80
2024-02-29T00:07:31.781Z,50.37
2024-02-29T00:08:07.001Z,49.43
2024-02-29T00:08:39.716Z,46.63
2024-02-29T00:09:12.761Z,49.10
2024-02-29T00:09:54.296Z,48.73
2024-02-29T00:10:28.013Z,47.60
2024-02-29T00:11:00.860Z,47.20
2024-02-29T00:11:34.015Z,50.73
2024-02-29T00:12:07.700Z,52.37
2024-02-29T00:12:42.105Z,49.60
2024-02-29T00:13:17.676Z,48.97
2024-02-29T00:13:50.747Z,49.47
2024-02-29T00:14:26.781Z,49.20
2024-02-29T00:15:00.508Z,49.77
2024-02-29T00:15:33.138Z,49.80
2024-02-29T00:16:06.118Z,48.23
2024-02-29T00:16:40.808Z,48.70
2024-02-29T00:17:13.479Z,49.40
2024-02-29T00:17:46.193Z,50.00
2024-02-29T00:18:20.262Z,49.67
2024-02-29T00:18:52.769Z,49.07
2024-02-29T00:19:25.267Z,51.07
2024-02-29T00:19:57.741Z,50.03
2024-02-29T00:20:33.023Z,49.33
2024-02-29T00:21:06.163Z,50.90
2024-02-29T00:22:26.215Z,50.67
2024-02-29T00:23:01.638Z,50.17
2024-02-29T00:23:35.679Z,50.60
2024-02-29T00:24:09.188Z,49.60
2024-02-29T00:24:45.164Z,49.10
2024-02-29T00:25:18.508Z,50.13
2024-02-29T00:25:51.043Z,51.87
2024-02-29T00:26:24.654Z,50.63
2024-02-29T00:26:58.371Z,49.83
2024-02-29T00:28:18.786Z,51.07
2024-02-29T00:28:53.660Z,50.00
2024-02-29T00:29:28.698Z,51.10
2024-02-29T00:30:01.525Z,50.80
2024-02-29T00:30:43.689Z,50.10
2024-02-29T00:31:16.440Z,49.00
2024-02-29T00:31:49.007Z,51.17
2024-02-29T00:32:21.710Z,51.67
2024-02-29T00:32:58.314Z,51.73
2024-02-29T00:34:17.756Z,52.23
2024-02-29T00:34:52.098Z,53.97
2024-02-29T00:35:24.782Z,51.77
2024-02-29T00:36:05.142Z,53.67
2024-02-29T00:36:43.710Z,51.97
2024-02-29T00:37:16.625Z,51.90
2024-02-29T00:37:49.114Z,52.97
2024-02-29T00:38:21.531Z,53.93
2024-02-29T00:39:02.254Z,53.53
2024-02-29T00:39:43.184Z,51.13
2024-02-29T00:40:18.579Z,52.40
2024-02-29T00:40:51.362Z,52.03
2024-02-29T00:41:23.982Z,52.53
2024-02-29T00:41:57.640Z,52.73
2024-02-29T00:42:32.855Z,51.37
2024-02-29T00:43:05.712Z,51.03
2024-02-29T00:43:38.438Z,51.60
2024-02-29T00:44:12.507Z,49.97
2024-02-29T00:44:47.712Z,51.80
2024-02-29T00:45:20.234Z,52.90
2024-02-29T00:45:53.551Z,52.27
2024-02-29T00:46:27.187Z,50.83
2024-02-29T00:47:00.800Z,52.13
2024-02-29T00:47:33.332Z,51.40
2024-02-29T00:48:06.556Z,50.77
2024-02-29T00:48:40.250Z,50.90
2024-02-29T00:49:15.115Z,51.20
2024-02-29T00:49:47.899Z,51.00
2024-02-29T00:50:20.695Z,52.80
2024-02-29T00:50:54.284Z,50.17
2024-02-29T00:51:28.592Z,51.63
2024-02-29T00:52:01.588Z,49.67
2024-02-29T00:52:34.588Z,50.90
2024-02-29T00:53:07.923Z,53.27
2024-02-29T00:53:40.569Z,53.00
2024-02-29T00:54:13.307Z,53.50
2024-02-29T00:54:47.097Z,51.10
2024-02-29T00:55:19.717Z,49.83
2024-02-29T00:55:52.181Z,52.27
2024-02-29T00:56:25.103Z,51.13
2024-02-29T00:56:58.760Z,50.90
2024-02-29T00:57:31.865Z,49.23
2024-02-29T00:58:04.619Z,50.87
2024-02-29T00:58:37.391Z,49.00
2024-02-29T00:59:11.052Z,49.73
2024-02-29T00:59:43.750Z,52.57
2024-02-29T01:00:16.636Z,51.50
2024-02-29T01:00:51.784Z,50.83
2024-02-29T01:01:24.647Z,49.20
2024-02-29T01:01:58.327Z,51.13
2024-02-29T01:02:31.112Z,51.10
2024-02-29T01:03:04.854Z,51.50
2024-02-29T01:03:37.763Z,53.93
2024-02-29T01:04:11.662Z,50.73
2024-02-29T01:04:44.387Z,51.27
2024-02-29T01:05:17.201Z,50.53
2024-02-29T01:05:49.955Z,49.03
2024-02-29T01:06:23.697Z,47.87
2024-02-29T01:06:58.596Z,49.67
2024-02-29T01:07:31.336Z,48.57
2024-02-29T01:08:03.854Z,50.30
2024-02-29T01:08:37.359Z,51.83
2024-02-29T01:09:10.163Z,50.83
2024-02-29T01:09:42.791Z,53.03
2024-02-29T01:10:15.584Z,51.40
2024-02-29T01:10:49.926Z,52.17
2024-02-29T01:11:22.660Z,51.03
2024-02-29T01:11:55.423Z,50.70
2024-02-29T01:12:28.500Z,51.60
2024-02-29T01:13:02.573Z,51.07
2024-02-29T01:13:36.376Z,48.20
2024-02-29T01:14:09.159Z,48.80
2024-02-29T01:14:42.018Z,50.03
2024-02-29T01:15:15.572Z,51.27
2024-02-29T01:15:49.057Z,50.13
2024-02-29T01:16:21.520Z,51.97
2024-02-29T01:16:55.342Z,50.53
2024-02-29T01:17:29.017Z,50.27
2024-02-29T01:18:02.445Z,51.53
2024-02-29T01:18:35.366Z,51.67
2024-02-29T01:19:08.210Z,51.93
2024-02-29T01:19:41.780Z,50.63
2024-02-29T01:20:14.496Z,50.90
2024-02-29T01:20:47.384Z,49.80
2024-02-29T01:21:20.609Z,52.50
2024-02-29T01:21:54.522Z,52.33
2024-02-29T01:22:28.376Z,50.87
2024-02-29T01:23:01.494Z,48.57
2024-02-29T01:23:34.372Z,50.73
2024-02-29T01:24:08.701Z,50.67
2024-02-29T01:24:41.728Z,52.33
2024-02-29T01:25:14.608Z,49.23
2024-02-29T01:25:47.271Z,49.33
2024-02-29T01:26:20.886Z,51.67
2024-02-29T01:26:53.568Z,51.20
2024-02-29T01:27:26.325Z,50.13
2024-02-29T01:27:59.047Z,52.20
2024-02-29T01:28:32.643Z,52.53
2024-02-29T01:29:05.665Z,54.87
2024-02-29T01:29:40.607Z,51.33
2024-02-29T01:30:13.876Z,51.37
2024-02-29T01:30:47.747Z,51.80
2024-02-29T01:31:21.397Z,50.93
2024-02-29T01:31:53.947Z,52.73
2024-02-29T01:32:28.682Z,52.00
2024-02-29T01:33:03.561Z,50.00
2024-02-29T01:33:36.039Z,48.13
2024-02-29T01:34:08.797Z,50.53
2024-02-29T01:34:42.486Z,50.33
2024-02-29T01:35:15.421Z,50.80
2024-02-29T01:35:47.864Z,49.47
2024-02-29T01:36:20.581Z,50.83
2024-02-29T01:36:54.742Z,49.00
2024-02-29T01:37:28.938Z,48.77
2024-02-29T01:38:01.604Z,50.33
2024-02-29T01:38:33.970Z,49.97
2024-02-29T01:39:07.639Z,47.20
2024-02-29T01:39:40.683Z,48.30
2024-02-29T01:40:13.660Z,49.63
2024-02-29T01:40:46.920Z,49.40
2024-02-29T01:41:20.922Z,51.63
2024-02-29T01:41:53.557Z,50.13
2024-02-29T01:42:28.557Z,50.43
2024-02-29T01:43:01.402Z,49.90
2024-02-29T01:43:35.216Z,48.80
2024-02-29T01:44:07.676Z,47.03
2024-02-29T01:44:52.838Z,48.87
2024-02-29T01:45:25.631Z,46.73
2024-02-29T01:46:13.413Z,48.07
2024-02-29T01:46:46.655Z,49.97
2024-02-29T01:47:19.158Z,50.80
2024-02-29T01:47:53.020Z,50.07
2024-02-29T01:48:28.008Z,50.90
2024-02-29T01:49:02.931Z,50.30
2024-02-29T01:49:36.776Z,49.97
2024-02-29T01:50:12.957Z,50.80
2024-02-29T01:50:46.661Z,50.20
2024-02-29T01:51:20.805Z,50.53
2024-02-29T01:51:57.081Z,49.10
2024-02-29T01:52:35.656Z,51.77
2024-02-29T01:53:08.587Z,52.57
2024-02-29T01:53:41.211Z,51.03
2024-02-29T01:54:15.027Z,48.20
2024-02-29T01:54:47.905Z,48.13
2024-02-29T01:55:20.827Z,48.00
2024-02-29T01:55:53.566Z,48.07
2024-02-29T01:56:27.970Z,47.37
2024-02-29T01:57:00.441Z,47.17
2024-02-29T01:57:33.746Z,48.20
2024-02-29T01:58:06.469Z,48.23
2024-02-29T01:58:42.062Z,47.43
2024-02-29T01:59:15.282Z,49.40
2024-02-29T01:59:50.178Z,49.87
2024-02-29T02:00:26.935Z,49.80
2024-02-29T02:01:00.915Z,48.97
2024-02-29T02:01:34.915Z,49.00
2024-02-29T02:02:07.810Z,49.63
2024-02-29T02:02:40.827Z,46.87
2024-02-29T02:03:27.154Z,47.07
2024-02-29T02:04:00.115Z,46.50
2024-02-29T02:04:32.894Z,47.43
2024-02-29T02:05:06.757Z,47.27
2024-02-29T02:05:40.156Z,47.63
2024-02-29T02:06:13.206Z,48.23
2024-02-29T02:06:46.476Z,47.07
2024-02-29T02:07:19.322Z,46.83
2024-02-29T02:07:54.414Z,45.97
2024-02-29T02:08:29.339Z,47.77
2024-02-29T02:09:02.962Z,48.73
2024-02-29T02:09:36.529Z,49.10
2024-02-29T02:10:12.824Z,46.13
2024-02-29T02:10:45.998Z,47.27
2024-02-29T02:11:18.497Z,46.73
2024-02-29T02:11:51.343Z,46.00
2024-02-29T02:12:24.930Z,46.43
2024-02-29T02:12:57.673Z,48.83
2024-02-29T02:13:30.360Z,50.17
2024-02-29T02:14:03.827Z,45.50
2024-02-29T02:14:37.276Z,46.20
2024-02-29T02:15:24.202Z,45.83
2024-02-29T02:15:56.928Z,46.87
2024-02-29T02:16:31.010Z,47.20
2024-02-29T02:17:03.442Z,46.37
2024-02-29T02:17:36.343Z,46.20
2024-02-29T02:18:09.191Z,46.83
2024-02-29T02:18:42.841Z,45.33
2024-02-29T02:19:17.373Z,46.67
2024-02-29T02:19:53.181Z,45.43
2024-02-29T02:20:28.016Z,47.63
2024-02-29T02:21:00.628Z,47.90
2024-02-29T02:21:35.540Z,48.43
2024-02-29T02:22:08.076Z,46.67
2024-02-29T02:22:40.928Z,46.33
2024-02-29T02:23:14.614Z,47.93
2024-02-29T02:23:47.409Z,49.53
2024-02-29T02:24:22.110Z,47.30
2024-02-29T02:24:55.996Z,48.90
2024-02-29T02:25:30.972Z,47.47
2024-02-29T02:26:04.561Z,48.87
2024-02-29T02:26:37.678Z,49.17
2024-02-29T02:27:58.288Z,49.77
2024-02-29T02:28:31.461Z,47.73
2024-02-29T02:29:07.247Z,48.97
2024-02-29T02:29:39.757Z,46.83
2024-02-29T02:30:22.173Z,45.43
2024-02-29T02:30:56.231Z,46.23
2024-02-29T02:31:30.430Z,47.27
2024-02-29T02:32:03.264Z,45.90
2024-02-29T02:32:36.589Z,46.83
2024-02-29T02:33:21.522Z,46.93
2024-02-29T02:33:54.054Z,46.17
2024-02-29T02:34:26.809Z,47.20
2024-02-29T02:35:00.513Z,47.80
2024-02-29T02:35:35.417Z,45.60
2024-02-29T02:36:07.950Z,45.83
2024-02-29T02:36:41.009Z,46.60
2024-02-29T02:37:14.559Z,46.70
2024-02-29T02:37:50.286Z,46.40
2024-02-29T02:38:23.095Z,46.40
2024-02-29T02:38:56.794Z,45.20
2024-02-29T02:39:29.577Z,46.60
2024-02-29T02:40:04.210Z,47.17
2024-02-29T02:40:38.138Z,46.43
2024-02-29T02:41:10.990Z,48.40
2024-02-29T02:41:46.352Z,46.30
2024-02-29T02:42:19.196Z,46.50
2024-02-29T02:42:53.109Z,46.60
2024-02-29T02:43:25.854Z,46.40
2024-02-29T02:43:58.267Z,47.10
2024-02-29T02:44:30.946Z,46.40
2024-02-29T02:45:05.449Z,45.93
2024-02-29T02:45:38.213Z,47.33
2024-02-29T02:46:12.761Z,46.03
2024-02-29T02:46:45.406Z,45.10
2024-02-29T02:47:19.781Z,46.10
2024-02-29T02:47:52.568Z,46.30
2024-02-29T02:48:25.245Z,46.17
2024-02-29T02:48:57.895Z,46.93
2024-02-29T02:49:31.359Z,47.13
2024-02-29T02:50:04.397Z,45.97
2024-02-29T02:50:38.427Z,46.33
2024-02-29T02:51:11.290Z,46.07
2024-02-29T02:51:44.940Z,45.40
2024-02-29T02:52:17.805Z,48.20
2024-02-29T02:52:50.277Z,46.77
2024-02-29T02:53:23.132Z,47.70
2024-02-29T02:53:56.814Z,47.10
2024-02-29T02:54:29.424Z,48.13
2024-02-29T02:55:03.081Z,46.77
2024-02-29T02:55:35.840Z,48.00
2024-02-29T02:56:09.516Z,47.93
2024-02-29T02:56:41.923Z,46.57
2024-02-29T02:57:14.416Z,48.57
2024-02-29T02:57:48.061Z,47.50
2024-02-29T02:58:20.978Z,47.57
2024-02-29T02:58:53.780Z,49.03
2024-02-29T02:59:27.537Z,47.47
2024-02-29T03:00:00.241Z,46.70
2024-02-29T03:00:32.947Z,47.03
2024-02-29T03:01:05.371Z,46.43
2024-02-29T03:01:39.200Z,48.80
2024-02-29T03:02:12.247Z,48.83
2024-02-29T03:02:44.840Z,49.20
2024-02-29T03:03:17.746Z,49.87
2024-02-29T03:03:52.880Z,48.13
2024-02-29T03:04:25.545Z,48.70
2024-02-29T03:04:58.348Z,49.20
2024-02-29T03:05:31.237Z,48.27
2024-02-29T03:06:07.148Z,52.53
2024-02-29T03:06:39.887Z,51.27
2024-02-29T03:07:12.997Z,51.87
2024-02-29T03:07:46.262Z,51.00
2024-02-29T03:08:18.872Z,49.40
2024-02-29T03:08:52.884Z,50.60
2024-02-29T03:09:25.349Z,48.43
2024-02-29T03:09:57.800Z,49.97
2024-02-29T03:10:31.637Z,49.83
2024-02-29T03:11:04.794Z,48.27
2024-02-29T03:11:37.463Z,50.13
2024-02-29T03:12:11.470Z,49.97
2024-02-29T03:12:48.317Z,50.87
2024-02-29T03:13:20.976Z,50.07
2024-02-29T03:13:54.758Z,50.83
2024-02-29T03:14:27.740Z,49.17
2024-02-29T03:15:01.523Z,50.50
2024-02-29T03:15:34.065Z,51.37
2024-02-29T03:16:06.877Z,50.20
2024-02-29T03:16:39.562Z,48.67
2024-02-29T03:17:13.222Z,49.67
2024-02-29T03:17:45.867Z,48.57
2024-02-29T03:18:18.565Z,48.77
2024-02-29T03:18:52.208Z,50.50
2024-02-29T03:19:24.897Z,51.83
2024-02-29T03:19:57.576Z,51.40
2024-02-29T03:20:29.971Z,50.90
2024-02-29T03:21:04.675Z,50.83
2024-02-29T03:21:38.610Z,49.40
2024-02-29T03:22:11.129Z,50.80
2024-02-29T03:22:47.042Z,49.67
2024-02-29T03:23:21.392Z,49.77
2024-02-29T03:23:54.461Z,51.67
2024-02-29T03:24:26.797Z,50.50
2024-02-29T03:25:00.476Z,50.60
2024-02-29T03:25:36.035Z,51.87
2024-02-29T03:26:08.680Z,51.03
2024-02-29T03:26:41.188Z,50.83
2024-02-29T03:27:14.832Z,49.90
2024-02-29T03:27:47.613Z,51.10
2024-02-29T03:28:20.265Z,52.77
2024-02-29T03:28:53.680Z,51.43
2024-02-29T03:29:26.387Z,50.80
2024-02-29T03:30:00.521Z,50.50
2024-02-29T03:30:33.448Z,51.73
2024-02-29T03:31:11.958Z,51.00
2024-02-29T03:31:44.860Z,51.77
2024-02-29T03:32:19.202Z,51.33
2024-02-29T03:32:55.129Z,50.40
2024-02-29T03:33:28.170Z,51.60
2024-02-29T03:34:03.392Z,51.33
2024-02-29T03:34:36.047Z,53.30
2024-02-29T03:35:10.520Z,51.83
2024-02-29T03:35:42.897Z,51.03
2024-02-29T03:36:15.757Z,49.33
2024-02-29T03:36:50.077Z,51.57
2024-02-29T03:37:23.711Z,51.57
2024-02-29T03:37:56.154Z,52.20
2024-02-29T03:38:28.828Z,52.27
2024-02-29T03:39:04.726Z,50.83
2024-02-29T03:39:39.277Z,50.50
2024-02-29T03:40:12.713Z,51.47
2024-02-29T03:40:45.486Z,50.07
2024-02-29T03:41:17.976Z,50.93
2024-02-29T03:41:51.562Z,53.23
2024-02-29T03:42:24.257Z,51.47
2024-02-29T03:42:56.890Z,51.13
2024-02-29T03:43:29.486Z,50.80
2024-02-29T03:44:03.684Z,51.47
2024-02-29T03:44:36.333Z,52.13
2024-02-29T03:45:10.027Z,52.60
2024-02-29T03:45:45.074Z,52.23
2024-02-29T03:46:17.957Z,51.13
2024-02-29T03:46:50.690Z,51.70
2024-02-29T03:47:23.432Z,49.93
2024-02-29T03:47:57.252Z,49.03
2024-02-29T03:48:30.755Z,49.77
2024-02-29T03:49:03.278Z,49.63
2024-02-29T03:49:36.006Z,50.43
2024-02-29T03:50:12.195Z,48.17
2024-02-29T03:50:44.630Z,49.77
2024-02-29T03:51:19.581Z,49.97
2024-02-29T03:51:53.433Z,50.77
2024-02-29T03:52:27.125Z,50.73
2024-02-29T03:52:59.819Z,50.43
2024-02-29T03:53:32.397Z,50.70
2024-02-29T03:54:04.913Z,49.57
2024-02-29T03:54:38.348Z,49.87
2024-02-29T03:55:12.684Z,49.97
2024-02-29T03:55:46.842Z,50.33
2024-02-29T03:56:19.195Z,50.00
2024-02-29T03:56:52.850Z,49.63
2024-02-29T03:57:25.769Z,50.00
2024-02-29T03:57:58.169Z,48.67
2024-02-29T03:58:30.871Z,48.23
2024-02-29T03:59:04.492Z,49.60
2024-02-29T03:59:37.085Z,49.93
2024-02-29T04:00:13.523Z,48.67
2024-02-29T04:00:46.337Z,48.50
2024-02-29T04:01:20.396Z,48.23
2024-02-29T04:01:53.346Z,49.30
2024-02-29T04:02:25.777Z,49.67
2024-02-29T04:02:58.273Z,50.20
2024-02-29T04:03:32.229Z,50.40
2024-02-29T04:04:05.227Z,49.23
2024-02-29T04:04:40.789Z,48.00
2024-02-29T04:05:13.492Z,48.83
2024-02-29T04:05:47.703Z,50.97
2024-02-29T04:06:20.209Z,49.90
2024-02-29T04:06:54.491Z,47.40
2024-02-29T04:07:26.917Z,47.63
2024-02-29T04:08:05.013Z,48.60
2024-02-29T04:08:37.925Z,50.30
2024-02-29T04:09:10.835Z,48.63
2024-02-29T04:09:43.541Z,50.57
2024-02-29T04:10:17.433Z,50.80
2024-02-29T04:10:51.684Z,52.83
2024-02-29T04:11:24.516Z,49.93
2024-02-29T04:11:57.321Z,49.80
2024-02-29T04:12:31.051Z,50.27
2024-02-29T04:13:03.525Z,50.70
2024-02-29T04:13:36.109Z,50.13
2024-02-29T04:14:10.598Z,48.80
2024-02-29T04:14:48.574Z,49.60
2024-02-29T04:15:21.394Z,48.10
2024-02-29T04:15:54.095Z,48.53
2024-02-29T04:16:27.591Z,50.37
2024-02-29T04:17:00.364Z,50.10
2024-02-29T04:17:34.062Z,49.03
2024-02-29T04:18:06.906Z,48.70
2024-02-29T04:18:41.173Z,47.97
2024-02-29T04:19:14.042Z,51.50
2024-02-29T04:19:47.245Z,49.47
2024-02-29T04:20:20.227Z,50.07
2024-02-29T04:20:54.057Z,49.47
2024-02-29T04:21:26.787Z,51.37
2024-02-29T04:22:01.113Z,50.83
2024-02-29T04:22:34.713Z,49.80
2024-02-29T04:23:07.145Z,50.80
2024-02-29T04:23:39.958Z,50.03
2024-02-29T04:24:12.632Z,49.00
2024-02-29T04:24:46.263Z,48.30
2024-02-29T04:25:23.958Z,48.53
2024-02-29T04:25:56.323Z,48.73
2024-02-29T04:26:30.028Z,50.13
2024-02-29T04:27:02.507Z,50.57
2024-02-29T04:27:35.155Z,49.37
2024-02-29T04:28:07.868Z,48.77
2024-02-29T04:28:41.492Z,47.23
2024-02-29T04:29:14.230Z,48.63
2024-02-29T04:29:47.531Z,49.50
2024-02-29T04:30:20.374Z,47.60
2024-02-29T04:30:54.060Z,48.40
2024-02-29T04:31:26.486Z,48.63
2024-02-29T04:31:59.405Z,48.17
2024-02-29T04:32:32.160Z,51.50
2024-02-29T04:33:07.188Z,48.87
2024-02-29T04:33:39.746Z,46.23
2024-02-29T04:34:12.422Z,48.53
2024-02-29T04:34:45.569Z,49.93
2024-02-29T04:35:19.206Z,50.17
2024-02-29T04:35:51.885Z,50.00
2024-02-29T04:36:25.266Z,49.77
2024-02-29T04:36:58.280Z,49.87
2024-02-29T04:37:32.299Z,50.00
2024-02-29T04:38:06.369Z,50.03
2024-02-29T04:38:38.867Z,49.97
2024-02-29T04:39:11.412Z,50.27
2024-02-29T04:39:43.953Z,50.13
2024-02-29T04:40:16.818Z,49.50
2024-02-29T04:40:50.489Z,49.87
2024-02-29T04:41:23.241Z,49.03
2024-02-29T04:41:55.818Z,50.07
2024-02-29T04:42:28.677Z,50.87
2024-02-29T04:43:02.468Z,50.23
2024-02-29T04:43:36.093Z,50.13
2024-02-29T04:44:08.948Z,51.30
2024-02-29T04:44:41.665Z,50.63
2024-02-29T04:45:15.395Z,49.83
2024-02-29T04:45:48.123Z,49.70
2024-02-29T04:46:20.998Z,48.70
2024-02-29T04:46:54.661Z,48.67
2024-02-29T04:47:27.403Z,49.80
2024-02-29T04:48:00.230Z,51.13
2024-02-29T04:48:32.592Z,49.50
2024-02-29T04:49:06.354Z,49.00
2024-02-29T04:49:38.684Z,50.07
2024-02-29T04:50:11.464Z,48.57
2024-02-29T04:50:44.389Z,49.17
2024-02-29T04:51:18.222Z,50.47
2024-02-29T04:51:51.088Z,49.17
2024-02-29T04:52:23.810Z,48.40
2024-02-29T04:52:57.631Z,48.00
2024-02-29T04:53:30.979Z,48.77
2024-02-29T04:54:03.658Z,49.90
2024-02-29T04:54:38.230Z,50.87
2024-02-29T04:55:12.901Z,51.20
2024-02-29T04:55:46.551Z,49.50
2024-02-29T04:56:19.613Z,49.23
2024-02-29T04:56:52.077Z,49.70
2024-02-29T04:57:24.564Z,51.47
2024-02-29T04:57:58.300Z,50.63
2024-02-29T04:58:30.967Z,50.47
2024-02-29T04:59:05.803Z,51.07
2024-02-29T04:59:38.264Z,49.50
2024-02-29T05:00:13.095Z,50.33
2024-02-29T05:00:45.888Z,51.67
2024-02-29T05:01:18.584Z,50.23
2024-02-29T05:01:51.577Z,50.30
2024-02-29T05:02:25.335Z,49.43
2024-02-29T05:02:57.721Z,50.23
2024-02-29T05:03:30.626Z,50.40
2024-02-29T05:04:04.828Z,50.40
2024-02-29T05:04:38.736Z,50.00
2024-02-29T05:05:14.599Z,49.87
2024-02-29T05:05:47.231Z,48.83
2024-02-29T05:06:20.609Z,48.67
2024-02-29T05:06:54.816Z,48.07
2024-02-29T05:07:27.556Z,49.27
2024-02-29T05:08:03.018Z,51.50
2024-02-29T05:08:35.886Z,48.30
2024-02-29T05:09:08.316Z,50.13
2024-02-29T05:09:41.073Z,50.10
2024-02-29T05:10:15.057Z,50.13
2024-02-29T05:10:47.556Z,49.93
2024-02-29T05:11:20.273Z,51.80
2024-02-29T05:11:52.721Z,50.80
2024-02-29T05:12:28.098Z,50.97
2024-02-29T05:13:00.847Z,51.80
2024-02-29T05:13:33.456Z,48.67
2024-02-29T05:14:06.655Z,49.63
2024-02-29T05:14:41.073Z,48.50
2024-02-29T05:15:14.483Z,48.97
2024-02-29T05:15:47.082Z,48.70
2024-02-29T05:16:23.273Z,47.73
2024-02-29T05:16:55.971Z,47.93
2024-02-29T05:17:29.792Z,50.63
2024-02-29T05:18:05.230Z,49.00
2024-02-29T05:18:37.769Z,49.17
2024-02-29T05:19:11.873Z,48.43
2024-02-29T05:19:44.646Z,47.97
2024-02-29T05:20:18.622Z,48.97
2024-02-29T05:20:51.204Z,49.33
2024-02-29T05:21:23.711Z,50.27
2024-02-29T05:21:57.512Z,49.87
2024-02-29T05:22:30.236Z,48.27
2024-02-29T05:23:04.260Z,47.60
2024-02-29T05:23:37.058Z,49.13
2024-02-29T05:24:10.605Z,49.13
2024-02-29T05:24:43.261Z,49.40
2024-02-29T05:25:15.753Z,50.83
2024-02-29T05:25:48.609Z,50.47
2024-02-29T05:26:22.198Z,51.50
2024-02-29T05:26:54.876Z,49.27
2024-02-29T05:27:30.820Z,48.47
2024-02-29T05:28:03.396Z,49.67
2024-02-29T05:28:35.878Z,49.70
2024-02-29T05:29:09.301Z,48.83
2024-02-29T05:29:42.113Z,49.10
2024-02-29T05:30:16.167Z,49.80
2024-02-29T05:30:49.025Z,48.87
2024-02-29T05:31:21.877Z,50.03
2024-02-29T05:31:55.677Z,49.60
2024-02-29T05:32:29.286Z,48.77
2024-02-29T05:33:02.161Z,48.20
2024-02-29T05:33:34.746Z,48.37
2024-02-29T05:34:09.307Z,49.47
2024-02-29T05:34:42.166Z,49.90
2024-02-29T05:35:14.866Z,50.10
2024-02-29T05:35:52.114Z,48.47
2024-02-29T05:36:27.213Z,48.23
2024-02-29T05:37:00.229Z,50.43
2024-02-29T05:37:32.772Z,50.40
2024-02-29T05:38:08.692Z,51.00
2024-02-29T05:38:42.609Z,48.93
2024-02-29T05:39:15.704Z,51.23
2024-02-29T05:39:48.282Z,51.10
2024-02-29T05:40:21.245Z,51.53
2024-02-29T05:40:54.825Z,50.33
2024-02-29T05:41:27.856Z,49.20
2024-02-29T05:42:00.352Z,48.77
2024-02-29T05:42:34.627Z,49.30
2024-02-29T05:43:08.515Z,48.80
2024-02-29T05:43:41.024Z,47.93
2024-02-29T05:44:13.789Z,49.37
2024-02-29T05:44:47.343Z,48.93
2024-02-29T05:45:19.872Z,48.63
2024-02-29T05:45:52.709Z,49.97
2024-02-29T05:46:25.251Z,47.57
2024-02-29T05:46:59.254Z,46.40
2024-02-29T05:47:31.915Z,48.43
2024-02-29T05:48:05.511Z,48.63
2024-02-29T05:48:39.062Z,50.03
2024-02-29T05:49:12.701Z,50.07
2024-02-29T05:49:45.370Z,49.40
2024-02-29T05:50:18.054Z,48.53
2024-02-29T05:50:51.763Z,48.17
2024-02-29T05:51:24.420Z,51.20
2024-02-29T05:51:57.215Z,50.40
2024-02-29T05:52:30.715Z,51.57
2024-02-29T05:53:03.449Z,52.30
2024-02-29T05:53:37.430Z,53.07
2024-02-29T05:54:10.803Z,54.70
2024-02-29T05:54:43.255Z,52.30
2024-02-29T05:55:16.097Z,49.50
2024-02-29T05:55:49.469Z,50.07
2024-02-29T05:56:22.089Z,51.77
2024-02-29T05:56:55.352Z,50.53
2024-02-29T05:57:31.738Z,50.63
2024-02-29T05:58:05.676Z,48.30
2024-02-29T05:58:38.071Z,50.10
2024-02-29T05:59:10.951Z,51.10
2024-02-29T05:59:43.602Z,49.47
2024-02-29T06:00:18.782Z,50.77
2024-02-29T06:00:51.662Z,50.50
2024-02-29T06:01:24.195Z,51.23
2024-02-29T06:01:58.113Z,49.97
2024-02-29T06:02:31.808Z,50.20
2024-02-29T06:03:04.671Z,51.23
2024-02-29T06:03:38.832Z,51.10
2024-02-29T06:04:12.397Z,50.63
2024-02-29T06:04:45.680Z,52.03
2024-02-29T06:05:21.103Z,53.63
2024-02-29T06:05:54.744Z,55.87
2024-02-29T06:06:27.339Z,56.33
2024-02-29T06:07:00.042Z,54.53
2024-02-29T06:07:32.753Z,54.80
2024-02-29T06:08:07.053Z,54.13
2024-02-29T06:08:41.099Z,55.90
2024-02-29T06:09:16.670Z,53.03
2024-02-29T06:09:49.445Z,54.90
2024-02-29T06:10:23.878Z,55.40
2024-02-29T06:10:56.625Z,54.73
2024-02-29T06:11:29.825Z,61.13
2024-02-29T06:12:04.052Z,60.60
2024-02-29T06:12:36.931Z,58.57
2024-02-29T06:13:09.762Z,58.97
2024-02-29T06:13:42.530Z,59.67
2024-02-29T06:14:15.956Z,58.53
2024-02-29T06:14:50.361Z,57.70
2024-02-29T06:15:23.052Z,56.70
2024-02-29T06:15:56.017Z,55.80
2024-02-29T06:16:28.929Z,53.60
2024-02-29T06:17:04.994Z,54.77
2024-02-29T06:17:37.423Z,52.57
2024-02-29T06:18:12.050Z,50.30
2024-02-29T06:18:48.012Z,52.23
2024-02-29T06:19:21.016Z,52.57
2024-02-29T06:19:54.851Z,53.50
2024-02-29T06:20:27.600Z,52.07
2024-02-29T06:21:00.622Z,53.97
2024-02-29T06:21:34.552Z,52.17
2024-02-29T06:22:07.286Z,49.90
2024-02-29T06:22:40.988Z,50.33
2024-02-29T06:23:13.923Z,50.77
2024-02-29T06:23:49.208Z,49.10
2024-02-29T06:24:21.900Z,49.97
2024-02-29T06:24:54.815Z,49.30
2024-02-29T06:25:27.608Z,49.00
2024-02-29T06:26:01.485Z,49.13
2024-02-29T06:26:34.055Z,48.07
2024-02-29T06:27:06.737Z,47.30
2024-02-29T06:27:40.551Z,48.67
2024-02-29T06:28:16.005Z,47.27
2024-02-29T06:28:48.827Z,48.30
2024-02-29T06:29:21.581Z,49.40
2024-02-29T06:29:55.106Z,50.57
2024-02-29T06:30:33.543Z,47.33
2024-02-29T06:31:06.568Z,48.53
2024-02-29T06:31:39.046Z,50.53
2024-02-29T06:32:12.776Z,50.63
2024-02-29T06:32:45.922Z,49.53
2024-02-29T06:33:18.508Z,48.90
2024-02-29T06:33:51.868Z,48.63
2024-02-29T06:34:24.491Z,48.60
2024-02-29T06:34:57.211Z,49.10
2024-02-29T06:35:29.881Z,47.90
2024-02-29T06:36:07.479Z,48.93
2024-02-29T06:36:41.601Z,50.43
2024-02-29T06:37:14.189Z,48.93
2024-02-29T06:37:47.136Z,50.03
2024-02-29T06:38:20.636Z,49.40
2024-02-29T06:38:54.639Z,49.60
2024-02-29T06:39:27.149Z,49.17
2024-02-29T06:39:59.890Z,48.43
2024-02-29T06:40:33.749Z,51.90
2024-02-29T06:41:09.946Z,50.20
2024-02-29T06:41:45.217Z,49.30
2024-02-29T06:42:21.434Z,49.13
2024-02-29T06:42:54.070Z,46.80
2024-02-29T06:43:26.820Z,49.50
2024-02-29T06:43:59.875Z,51.57
2024-02-29T06:44:33.322Z,49.53
2024-02-29T06:45:08.628Z,48.97
2024-02-29T06:45:47.595Z,50.20
2024-02-29T06:46:21.291Z,48.83
2024-02-29T06:46:53.961Z,49.03
2024-02-29T06:47:26.504Z,50.87
2024-02-29T06:47:59.520Z,50.63
2024-02-29T06:48:33.339Z,49.77
2024-02-29T06:49:07.559Z,49.13
2024-02-29T06:49:40.146Z,51.40
2024-02-29T06:50:13.667Z,50.33
2024-02-29T06:50:47.730Z,51.17
2024-02-29T06:51:20.136Z,51.13
2024-02-29T06:51:52.915Z,50.90
2024-02-29T06:52:25.748Z,50.47
2024-02-29T06:52:59.948Z,50.33
2024-02-29T06:53:32.878Z,49.93
2024-02-29T06:54:07.119Z,51.00
2024-02-29T06:54:43.023Z,48.17
2024-02-29T06:55:15.507Z,47.63
2024-02-29T06:55:48.180Z,47.53
2024-02-29T06:56:21.757Z,48.70
2024-02-29T06:56:55.274Z,49.10
2024-02-29T06:57:28.152Z,48.87
2024-02-29T06:58:00.887Z,48.57
2024-02-29T06:58:35.046Z,48.20
2024-02-29T06:59:22.342Z,48.10
2024-02-29T06:59:55.712Z,47.13
2024-02-29T07:00:28.126Z,49.03
2024-02-29T07:01:01.651Z,48.93
2024-02-29T07:01:34.301Z,52.80
2024-02-29T07:02:08.106Z,50.53
2024-02-29T07:02:40.762Z,47.67
2024-02-29T07:03:13.458Z,49.80
2024-02-29T07:03:45.955Z,52.03
2024-02-29T07:04:19.497Z,51.00
2024-02-29T07:04:52.240Z,51.40
2024-02-29T07:05:24.895Z,54.60
2024-02-29T07:05:57.452Z,53.07
2024-02-29T07:06:31.071Z,53.07
2024-02-29T07:07:04.762Z,53.20
2024-02-29T07:07:37.489Z,56.03
2024-02-29T07:08:11.558Z,53.57
2024-02-29T07:08:45.444Z,51.40
2024-02-29T07:09:19.415Z,53.77
2024-02-29T07:09:54.209Z,54.90
2024-02-29T07:10:27.944Z,53.20
2024-02-29T07:11:02.402Z,51.73
2024-02-29T07:11:35.163Z,51.27
2024-02-29T07:12:08.386Z,49.80
2024-02-29T07:12:42.524Z,52.90
2024-02-29T07:13:15.731Z,54.10
2024-02-29T07:13:48.670Z,55.93
2024-02-29T07:14:21.414Z,54.90
2024-02-29T07:14:55.127Z,51.80
2024-02-29T07:15:27.678Z,52.20
2024-02-29T07:16:00.232Z,53.87